sensor_id;sensor_type;location;lat;lon;timestamp;temperature;humidity
13251;DHT22;6692;50.710;7.180;2023-04-15T00:00:32;7.70;99.90
13251;DHT22;6692;50.710;7.180;2023-04-15T00:02:33;7.70;99.90
13251;DHT22;6692;50.710;7.180;2023-04-15T00:04:35;7.60;99.90
13251;DHT22;6692;50.710;7.180;2023-04-15T00:06:36;7.60;99.90
13251;DHT22;6692;50.710;7.180;2023-04-15T00:08:37;7.50;99.90
13251;DHT22;6692;50.710;7.180;2023-04-15T00:10:38;7.50;99.90
13251;DHT22;6692;50.710;7.180;2023-04-15T00:12:39;7.50;99.90
13251;DHT22;6692;50.710;7.180;2023-04-15T00:14:40;7.60;99.90
13251;DHT22;6692;50.710;7.180;2023-04-15T00:16:41;7.60;99.90
13251;DHT22;6692;50.710;7.180;2023-04-15T00:18:41;7.60;99.90
13251;DHT22;6692;50.710;7.180;2023-04-15T00:20:42;7.60;99.90
13251;DHT22;6692;50.710;7.180;2023-04-15T00:22:43;7.60;99.90
13251;DHT22;6692;50.710;7.180;2023-04-15T00:24:45;7.60;99.90
13251;DHT22;6692;50.710;7.180;2023-04-15T00:26:45;7.60;99.90
13251;DHT22;6692;50.710;7.180;2023-04-15T00:28:47;7.60;99.90
13251;DHT22;6692;50.710;7.180;2023-04-15T00:30:48;7.60;99.90
13251;DHT22;6692;50.710;7.180;2023-04-15T00:32:49;7.50;99.90
13251;DHT22;6692;50.710;7.180;2023-04-15T00:34:50;7.50;99.90
13251;DHT22;6692;50.710;7.180;2023-04-15T00:36:51;7.50;99.90
13251;DHT22;6692;50.710;7.180;2023-04-15T00:38:51;7.50;99.90
13251;DHT22;6692;50.710;7.180;2023-04-15T00:40:52;7.40;99.90
13251;DHT22;6692;50.710;7.180;2023-04-15T00:42:53;7.50;99.90
13251;DHT22;6692;50.710;7.180;2023-04-15T00:44:53;7.50;99.90
13251;DHT22;6692;50.710;7.180;2023-04-15T00:46:55;7.40;99.90
13251;DHT22;6692;50.710;7.180;2023-04-15T00:48:56;7.40;99.90
13251;DHT22;6692;50.710;7.180;2023-04-15T00:50:57;7.30;99.90
13251;DHT22;6692;50.710;7.180;2023-04-15T00:52:59;7.30;99.90
13251;DHT22;6692;50.710;7.180;2023-04-15T00:55:00;7.40;99.90
13251;DHT22;6692;50.710;7.180;2023-04-15T00:57:01;7.30;99.90
13251;DHT22;6692;50.710;7.180;2023-04-15T00:59:02;7.20;99.90
13251;DHT22;6692;50.710;7.180;2023-04-15T01:01:04;7.20;99.90
13251;DHT22;6692;50.710;7.180;2023-04-15T01:03:04;7.20;99.90
13251;DHT22;6692;50.710;7.180;2023-04-15T01:05:05;7.10;99.90
13251;DHT22;6692;50.710;7.180;2023-04-15T01:07:06;7.10;99.90
13251;DHT22;6692;50.710;7.180;2023-04-15T01:09:06;7.10;99.90
13251;DHT22;6692;50.710;7.180;2023-04-15T01:11:07;7.10;99.90
13251;DHT22;6692;50.710;7.180;2023-04-15T01:13:08;7.00;99.90
13251;DHT22;6692;50.710;7.180;2023-04-15T01:15:10;6.90;99.90
13251;DHT22;6692;50.710;7.180;2023-04-15T01:17:11;6.90;99.90
13251;DHT22;6692;50.710;7.180;2023-04-15T01:19:12;6.80;99.90
13251;DHT22;6692;50.710;7.180;2023-04-15T01:21:13;6.90;99.90
13251;DHT22;6692;50.710;7.180;2023-04-15T01:23:14;6.80;99.90
13251;DHT22;6692;50.710;7.180;2023-04-15T01:25:17;6.80;99.90
13251;DHT22;6692;50.710;7.180;2023-04-15T01:27:17;6.80;99.90
13251;DHT22;6692;50.710;7.180;2023-04-15T01:29:18;6.80;99.90
13251;DHT22;6692;50.710;7.180;2023-04-15T01:31:19;6.70;99.90
13251;DHT22;6692;50.710;7.180;2023-04-15T01:33:19;6.70;99.90
13251;DHT22;6692;50.710;7.180;2023-04-15T01:35:20;6.70;99.90
13251;DHT22;6692;50.710;7.180;2023-04-15T01:37:21;6.70;99.90
13251;DHT22;6692;50.710;7.180;2023-04-15T01:39:23;6.70;99.90
13251;DHT22;6692;50.710;7.180;2023-04-15T01:41:25;6.70;99.90
13251;DHT22;6692;50.710;7.180;2023-04-15T01:43:26;6.60;99.90
13251;DHT22;6692;50.710;7.180;2023-04-15T01:45:27;6.60;99.90
13251;DHT22;6692;50.710;7.180;2023-04-15T01:47:27;6.60;99.90
13251;DHT22;6692;50.710;7.180;2023-04-15T01:49:28;6.60;99.90
13251;DHT22;6692;50.710;7.180;2023-04-15T01:51:28;6.50;99.90
13251;DHT22;6692;50.710;7.180;2023-04-15T01:53:29;6.50;99.90
13251;DHT22;6692;50.710;7.180;2023-04-15T01:55:30;6.40;99.90
13251;DHT22;6692;50.710;7.180;2023-04-15T01:57:30;6.50;99.90
13251;DHT22;6692;50.710;7.180;2023-04-15T01:59:31;6.50;99.90
13251;DHT22;6692;50.710;7.180;2023-04-15T02:01:31;6.40;99.90
13251;DHT22;6692;50.710;7.180;2023-04-15T02:03:32;6.40;99.90
13251;DHT22;6692;50.710;7.180;2023-04-15T02:05:34;6.40;99.90
13251;DHT22;6692;50.710;7.180;2023-04-15T02:07:34;6.40;99.90
13251;DHT22;6692;50.710;7.180;2023-04-15T02:09:35;6.30;99.90
13251;DHT22;6692;50.710;7.180;2023-04-15T02:11:36;6.20;99.90
13251;DHT22;6692;50.710;7.180;2023-04-15T02:13:37;6.20;99.90
13251;DHT22;6692;50.710;7.180;2023-04-15T02:15:38;6.20;99.90
13251;DHT22;6692;50.710;7.180;2023-04-15T02:17:39;6.30;99.90
13251;DHT22;6692;50.710;7.180;2023-04-15T02:19:39;6.30;99.90
13251;DHT22;6692;50.710;7.180;2023-04-15T02:21:40;6.30;99.90
13251;DHT22;6692;50.710;7.180;2023-04-15T02:23:41;6.30;99.90
13251;DHT22;6692;50.710;7.180;2023-04-15T02:25:42;6.30;99.90
13251;DHT22;6692;50.710;7.180;2023-04-15T02:27:43;6.30;99.90
13251;DHT22;6692;50.710;7.180;2023-04-15T02:29:44;6.20;99.90
13251;DHT22;6692;50.710;7.180;2023-04-15T02:31:45;6.20;99.90
13251;DHT22;6692;50.710;7.180;2023-04-15T02:33:45;6.20;99.90
13251;DHT22;6692;50.710;7.180;2023-04-15T02:35:46;6.20;99.90
13251;DHT22;6692;50.710;7.180;2023-04-15T02:37:47;6.10;99.90
13251;DHT22;6692;50.710;7.180;2023-04-15T02:39:48;6.10;99.90
13251;DHT22;6692;50.710;7.180;2023-04-15T02:41:49;6.10;99.90
13251;DHT22;6692;50.710;7.180;2023-04-15T02:43:51;6.10;99.90
13251;DHT22;6692;50.710;7.180;2023-04-15T02:45:52;6.20;99.90
13251;DHT22;6692;50.710;7.180;2023-04-15T02:47:53;6.20;99.90
13251;DHT22;6692;50.710;7.180;2023-04-15T02:49:54;6.20;99.90
13251;DHT22;6692;50.710;7.180;2023-04-15T02:51:54;6.20;99.90
13251;DHT22;6692;50.710;7.180;2023-04-15T02:53:55;6.20;99.90
13251;DHT22;6692;50.710;7.180;2023-04-15T02:55:56;6.20;99.90
13251;DHT22;6692;50.710;7.180;2023-04-15T02:57:56;6.10;99.90
13251;DHT22;6692;50.710;7.180;2023-04-15T02:59:58;6.10;99.90
13251;DHT22;6692;50.710;7.180;2023-04-15T03:01:59;6.00;99.90
13251;DHT22;6692;50.710;7.180;2023-04-15T03:04:00;5.90;99.90
13251;DHT22;6692;50.710;7.180;2023-04-15T03:06:01;5.80;99.90
13251;DHT22;6692;50.710;7.180;2023-04-15T03:08:02;5.80;99.90
13251;DHT22;6692;50.710;7.180;2023-04-15T03:10:03;5.80;99.90
13251;DHT22;6692;50.710;7.180;2023-04-15T03:12:04;5.80;99.90
13251;DHT22;6692;50.710;7.180;2023-04-15T03:14:05;5.80;99.90
13251;DHT22;6692;50.710;7.180;2023-04-15T03:16:06;5.80;99.90
13251;DHT22;6692;50.710;7.180;2023-04-15T03:18:06;5.90;99.90
13251;DHT22;6692;50.710;7.180;2023-04-15T03:20:07;5.90;99.90
13251;DHT22;6692;50.710;7.180;2023-04-15T03:22:08;5.90;99.90
13251;DHT22;6692;50.710;7.180;2023-04-15T03:24:09;6.00;99.90
13251;DHT22;6692;50.710;7.180;2023-04-15T03:26:09;6.00;99.90
13251;DHT22;6692;50.710;7.180;2023-04-15T03:28:10;6.10;99.90
13251;DHT22;6692;50.710;7.180;2023-04-15T03:30:12;6.10;99.90
13251;DHT22;6692;50.710;7.180;2023-04-15T03:32:12;6.10;99.90
13251;DHT22;6692;50.710;7.180;2023-04-15T03:34:13;6.10;99.90
13251;DHT22;6692;50.710;7.180;2023-04-15T03:36:13;6.10;99.90
13251;DHT22;6692;50.710;7.180;2023-04-15T03:38:14;6.10;99.90
13251;DHT22;6692;50.710;7.180;2023-04-15T03:40:15;6.10;99.90
13251;DHT22;6692;50.710;7.180;2023-04-15T03:42:15;6.00;99.90
13251;DHT22;6692;50.710;7.180;2023-04-15T03:44:16;6.00;99.90
13251;DHT22;6692;50.710;7.180;2023-04-15T03:46:17;6.00;99.90
13251;DHT22;6692;50.710;7.180;2023-04-15T03:48:19;6.00;99.90
13251;DHT22;6692;50.710;7.180;2023-04-15T03:50:20;6.00;99.90
13251;DHT22;6692;50.710;7.180;2023-04-15T03:52:20;6.00;99.90
13251;DHT22;6692;50.710;7.180;2023-04-15T03:54:21;6.00;99.90
13251;DHT22;6692;50.710;7.180;2023-04-15T03:56:22;6.00;99.90
13251;DHT22;6692;50.710;7.180;2023-04-15T03:58:22;6.10;99.90
13251;DHT22;6692;50.710;7.180;2023-04-15T04:00:23;6.10;99.90
13251;DHT22;6692;50.710;7.180;2023-04-15T04:02:24;6.00;99.90
13251;DHT22;6692;50.710;7.180;2023-04-15T04:04:25;6.10;99.90
13251;DHT22;6692;50.710;7.180;2023-04-15T04:06:26;6.10;99.90
13251;DHT22;6692;50.710;7.180;2023-04-15T04:08:28;6.10;99.90
13251;DHT22;6692;50.710;7.180;2023-04-15T04:10:29;6.10;99.90
13251;DHT22;6692;50.710;7.180;2023-04-15T04:12:30;6.00;99.90
13251;DHT22;6692;50.710;7.180;2023-04-15T04:14:31;6.00;99.90
13251;DHT22;6692;50.710;7.180;2023-04-15T04:16:32;5.90;99.90
13251;DHT22;6692;50.710;7.180;2023-04-15T04:18:34;5.90;99.90
13251;DHT22;6692;50.710;7.180;2023-04-15T04:20:35;5.80;99.90
13251;DHT22;6692;50.710;7.180;2023-04-15T04:22:39;5.80;99.90
13251;DHT22;6692;50.710;7.180;2023-04-15T04:24:40;5.80;99.90
13251;DHT22;6692;50.710;7.180;2023-04-15T04:26:42;5.70;99.90
13251;DHT22;6692;50.710;7.180;2023-04-15T04:28:42;5.70;99.90
13251;DHT22;6692;50.710;7.180;2023-04-15T04:30:43;5.80;99.90
13251;DHT22;6692;50.710;7.180;2023-04-15T04:32:43;5.70;99.90
13251;DHT22;6692;50.710;7.180;2023-04-15T04:34:44;5.70;99.90
13251;DHT22;6692;50.710;7.180;2023-04-15T04:36:45;5.60;99.90
13251;DHT22;6692;50.710;7.180;2023-04-15T04:38:46;5.50;99.90
13251;DHT22;6692;50.710;7.180;2023-04-15T04:40:47;5.50;99.90
13251;DHT22;6692;50.710;7.180;2023-04-15T04:42:48;5.50;99.90
13251;DHT22;6692;50.710;7.180;2023-04-15T04:44:49;5.50;99.90
13251;DHT22;6692;50.710;7.180;2023-04-15T04:46:50;5.60;99.90
13251;DHT22;6692;50.710;7.180;2023-04-15T04:48:52;5.70;99.90
13251;DHT22;6692;50.710;7.180;2023-04-15T04:50:52;5.70;99.90
13251;DHT22;6692;50.710;7.180;2023-04-15T04:52:54;5.70;99.90
13251;DHT22;6692;50.710;7.180;2023-04-15T04:54:54;5.70;99.90
13251;DHT22;6692;50.710;7.180;2023-04-15T04:56:56;5.70;99.90
13251;DHT22;6692;50.710;7.180;2023-04-15T04:58:56;5.70;99.90
13251;DHT22;6692;50.710;7.180;2023-04-15T05:00:57;5.70;99.90
13251;DHT22;6692;50.710;7.180;2023-04-15T05:02:57;5.70;99.90
13251;DHT22;6692;50.710;7.180;2023-04-15T05:04:58;5.70;99.90
13251;DHT22;6692;50.710;7.180;2023-04-15T05:06:59;5.70;99.90
13251;DHT22;6692;50.710;7.180;2023-04-15T05:09:00;5.60;99.90
13251;DHT22;6692;50.710;7.180;2023-04-15T05:11:01;5.60;99.90
13251;DHT22;6692;50.710;7.180;2023-04-15T05:13:02;5.70;99.90
13251;DHT22;6692;50.710;7.180;2023-04-15T05:15:04;5.70;99.90
13251;DHT22;6692;50.710;7.180;2023-04-15T05:17:05;5.80;99.90
13251;DHT22;6692;50.710;7.180;2023-04-15T05:19:06;5.90;99.90
13251;DHT22;6692;50.710;7.180;2023-04-15T05:21:08;5.90;99.90
13251;DHT22;6692;50.710;7.180;2023-04-15T05:23:08;5.90;99.90
13251;DHT22;6692;50.710;7.180;2023-04-15T05:25:09;6.00;99.90
13251;DHT22;6692;50.710;7.180;2023-04-15T05:27:10;6.10;99.90
13251;DHT22;6692;50.710;7.180;2023-04-15T05:29:10;6.00;99.90
13251;DHT22;6692;50.710;7.180;2023-04-15T05:31:11;6.10;99.90
13251;DHT22;6692;50.710;7.180;2023-04-15T05:33:13;6.20;99.90
13251;DHT22;6692;50.710;7.180;2023-04-15T05:35:14;6.20;99.90
13251;DHT22;6692;50.710;7.180;2023-04-15T05:37:14;6.40;99.90
13251;DHT22;6692;50.710;7.180;2023-04-15T05:39:15;6.40;99.90
13251;DHT22;6692;50.710;7.180;2023-04-15T05:41:16;6.50;99.90
13251;DHT22;6692;50.710;7.180;2023-04-15T05:43:16;6.60;99.90
13251;DHT22;6692;50.710;7.180;2023-04-15T05:45:18;6.70;99.90
13251;DHT22;6692;50.710;7.180;2023-04-15T05:47:18;6.70;99.90
13251;DHT22;6692;50.710;7.180;2023-04-15T05:49:19;6.90;99.90
13251;DHT22;6692;50.710;7.180;2023-04-15T05:51:20;7.00;99.90
13251;DHT22;6692;50.710;7.180;2023-04-15T05:53:22;7.10;99.90
13251;DHT22;6692;50.710;7.180;2023-04-15T05:55:22;7.10;99.90
13251;DHT22;6692;50.710;7.180;2023-04-15T05:57:23;7.20;99.90
13251;DHT22;6692;50.710;7.180;2023-04-15T05:59:24;7.30;99.90
13251;DHT22;6692;50.710;7.180;2023-04-15T06:01:24;7.50;99.90
13251;DHT22;6692;50.710;7.180;2023-04-15T06:03:25;7.60;99.90
13251;DHT22;6692;50.710;7.180;2023-04-15T06:05:26;7.70;99.90
13251;DHT22;6692;50.710;7.180;2023-04-15T06:07:27;7.70;99.90
13251;DHT22;6692;50.710;7.180;2023-04-15T06:09:28;7.80;99.90
13251;DHT22;6692;50.710;7.180;2023-04-15T06:11:29;7.90;99.90
13251;DHT22;6692;50.710;7.180;2023-04-15T06:13:30;7.90;99.90
13251;DHT22;6692;50.710;7.180;2023-04-15T06:15:31;8.00;99.90
13251;DHT22;6692;50.710;7.180;2023-04-15T06:17:32;8.00;99.90
13251;DHT22;6692;50.710;7.180;2023-04-15T06:19:34;8.00;99.90
13251;DHT22;6692;50.710;7.180;2023-04-15T06:21:34;8.00;99.90
13251;DHT22;6692;50.710;7.180;2023-04-15T06:23:36;8.00;99.90
13251;DHT22;6692;50.710;7.180;2023-04-15T06:25:37;8.10;99.90
13251;DHT22;6692;50.710;7.180;2023-04-15T06:27:38;8.10;99.90
13251;DHT22;6692;50.710;7.180;2023-04-15T06:29:38;8.10;99.90
13251;DHT22;6692;50.710;7.180;2023-04-15T06:31:39;8.10;99.90
13251;DHT22;6692;50.710;7.180;2023-04-15T06:33:40;8.10;99.90
13251;DHT22;6692;50.710;7.180;2023-04-15T06:35:40;8.10;99.90
13251;DHT22;6692;50.710;7.180;2023-04-15T06:37:41;8.20;99.90
13251;DHT22;6692;50.710;7.180;2023-04-15T06:39:42;8.30;99.90
13251;DHT22;6692;50.710;7.180;2023-04-15T06:41:44;8.40;99.90
13251;DHT22;6692;50.710;7.180;2023-04-15T06:43:44;8.40;99.90
13251;DHT22;6692;50.710;7.180;2023-04-15T06:45:46;8.60;99.90
13251;DHT22;6692;50.710;7.180;2023-04-15T06:47:46;8.60;99.90
13251;DHT22;6692;50.710;7.180;2023-04-15T06:49:47;8.70;99.90
13251;DHT22;6692;50.710;7.180;2023-04-15T06:51:48;8.80;99.90
13251;DHT22;6692;50.710;7.180;2023-04-15T06:53:48;9.00;99.90
13251;DHT22;6692;50.710;7.180;2023-04-15T06:55:49;9.10;99.90
13251;DHT22;6692;50.710;7.180;2023-04-15T06:57:50;9.20;99.90
13251;DHT22;6692;50.710;7.180;2023-04-15T06:59:50;9.30;99.90
13251;DHT22;6692;50.710;7.180;2023-04-15T07:01:52;9.50;99.90
13251;DHT22;6692;50.710;7.180;2023-04-15T07:03:52;9.50;99.90
13251;DHT22;6692;50.710;7.180;2023-04-15T07:05:53;9.70;99.90
13251;DHT22;6692;50.710;7.180;2023-04-15T07:07:53;9.80;99.90
13251;DHT22;6692;50.710;7.180;2023-04-15T07:09:54;9.80;99.90
13251;DHT22;6692;50.710;7.180;2023-04-15T07:11:55;9.90;99.90
13251;DHT22;6692;50.710;7.180;2023-04-15T07:13:56;10.00;99.90
13251;DHT22;6692;50.710;7.180;2023-04-15T07:15:56;10.10;99.90
13251;DHT22;6692;50.710;7.180;2023-04-15T07:17:57;10.20;99.90
13251;DHT22;6692;50.710;7.180;2023-04-15T07:19:59;10.20;99.90
13251;DHT22;6692;50.710;7.180;2023-04-15T07:22:00;10.30;99.90
13251;DHT22;6692;50.710;7.180;2023-04-15T07:24:01;10.30;99.90
13251;DHT22;6692;50.710;7.180;2023-04-15T07:26:02;10.50;99.90
13251;DHT22;6692;50.710;7.180;2023-04-15T07:28:02;10.50;99.90
13251;DHT22;6692;50.710;7.180;2023-04-15T07:30:04;10.60;99.90
13251;DHT22;6692;50.710;7.180;2023-04-15T07:32:05;10.70;99.90
13251;DHT22;6692;50.710;7.180;2023-04-15T07:34:06;10.80;99.90
13251;DHT22;6692;50.710;7.180;2023-04-15T07:36:06;10.90;99.90
13251;DHT22;6692;50.710;7.180;2023-04-15T07:38:07;11.00;99.90
13251;DHT22;6692;50.710;7.180;2023-04-15T07:40:08;11.10;99.90
13251;DHT22;6692;50.710;7.180;2023-04-15T07:42:09;11.20;99.90
13251;DHT22;6692;50.710;7.180;2023-04-15T07:44:10;11.30;99.90
13251;DHT22;6692;50.710;7.180;2023-04-15T07:46:11;11.30;99.90
13251;DHT22;6692;50.710;7.180;2023-04-15T07:48:12;11.40;99.90
13251;DHT22;6692;50.710;7.180;2023-04-15T07:50:12;11.40;99.90
13251;DHT22;6692;50.710;7.180;2023-04-15T07:52:13;11.50;99.90
13251;DHT22;6692;50.710;7.180;2023-04-15T07:54:14;11.60;99.90
13251;DHT22;6692;50.710;7.180;2023-04-15T07:56:14;11.70;99.90
13251;DHT22;6692;50.710;7.180;2023-04-15T07:58:15;11.80;99.90
13251;DHT22;6692;50.710;7.180;2023-04-15T08:00:16;11.90;99.90
13251;DHT22;6692;50.710;7.180;2023-04-15T08:02:16;12.00;99.90
13251;DHT22;6692;50.710;7.180;2023-04-15T08:04:18;12.10;99.90
13251;DHT22;6692;50.710;7.180;2023-04-15T08:06:19;12.20;99.90
13251;DHT22;6692;50.710;7.180;2023-04-15T08:08:20;12.20;99.90
13251;DHT22;6692;50.710;7.180;2023-04-15T08:10:21;12.40;99.90
13251;DHT22;6692;50.710;7.180;2023-04-15T08:12:22;12.40;99.90
13251;DHT22;6692;50.710;7.180;2023-04-15T08:14:23;12.40;99.90
13251;DHT22;6692;50.710;7.180;2023-04-15T08:16:23;12.50;99.90
13251;DHT22;6692;50.710;7.180;2023-04-15T08:18:24;12.50;99.90
13251;DHT22;6692;50.710;7.180;2023-04-15T08:20:24;12.60;99.90
13251;DHT22;6692;50.710;7.180;2023-04-15T08:22:25;12.60;99.90
13251;DHT22;6692;50.710;7.180;2023-04-15T08:24:26;12.60;99.90
13251;DHT22;6692;50.710;7.180;2023-04-15T08:26:26;12.60;99.90
13251;DHT22;6692;50.710;7.180;2023-04-15T08:28:27;12.60;99.90
13251;DHT22;6692;50.710;7.180;2023-04-15T08:30:28;12.70;99.90
13251;DHT22;6692;50.710;7.180;2023-04-15T08:32:28;12.70;99.90
13251;DHT22;6692;50.710;7.180;2023-04-15T08:34:29;12.80;99.90
13251;DHT22;6692;50.710;7.180;2023-04-15T08:36:31;13.00;99.90
13251;DHT22;6692;50.710;7.180;2023-04-15T08:38:31;13.00;99.90
13251;DHT22;6692;50.710;7.180;2023-04-15T08:40:34;13.10;99.90
13251;DHT22;6692;50.710;7.180;2023-04-15T08:42:35;13.20;99.90
13251;DHT22;6692;50.710;7.180;2023-04-15T08:44:35;13.20;99.90
13251;DHT22;6692;50.710;7.180;2023-04-15T08:46:36;13.20;99.90
13251;DHT22;6692;50.710;7.180;2023-04-15T08:48:37;13.30;99.90
13251;DHT22;6692;50.710;7.180;2023-04-15T08:50:38;13.30;99.90
13251;DHT22;6692;50.710;7.180;2023-04-15T08:52:39;13.50;99.90
13251;DHT22;6692;50.710;7.180;2023-04-15T08:54:41;13.50;99.90
13251;DHT22;6692;50.710;7.180;2023-04-15T08:56:42;13.50;99.90
13251;DHT22;6692;50.710;7.180;2023-04-15T08:58:43;13.50;99.90
13251;DHT22;6692;50.710;7.180;2023-04-15T09:00:43;13.60;99.90
13251;DHT22;6692;50.710;7.180;2023-04-15T09:02:44;13.60;99.90
13251;DHT22;6692;50.710;7.180;2023-04-15T09:04:45;13.60;99.90
13251;DHT22;6692;50.710;7.180;2023-04-15T09:06:45;13.60;99.90
13251;DHT22;6692;50.710;7.180;2023-04-15T09:08:46;13.60;99.90
13251;DHT22;6692;50.710;7.180;2023-04-15T09:10:47;13.60;99.90
13251;DHT22;6692;50.710;7.180;2023-04-15T09:12:48;13.60;99.90
13251;DHT22;6692;50.710;7.180;2023-04-15T09:14:49;13.60;99.90
13251;DHT22;6692;50.710;7.180;2023-04-15T09:16:55;13.60;99.90
13251;DHT22;6692;50.710;7.180;2023-04-15T09:18:55;13.50;99.90
13251;DHT22;6692;50.710;7.180;2023-04-15T09:20:56;13.50;99.90
13251;DHT22;6692;50.710;7.180;2023-04-15T09:22:57;13.50;99.90
13251;DHT22;6692;50.710;7.180;2023-04-15T09:24:58;13.40;99.90
13251;DHT22;6692;50.710;7.180;2023-04-15T09:26:59;13.40;99.90
13251;DHT22;6692;50.710;7.180;2023-04-15T09:29:05;13.40;99.90
13251;DHT22;6692;50.710;7.180;2023-04-15T09:31:05;13.50;99.90
13251;DHT22;6692;50.710;7.180;2023-04-15T09:33:06;13.60;99.90
13251;DHT22;6692;50.710;7.180;2023-04-15T09:35:09;13.60;99.90
13251;DHT22;6692;50.710;7.180;2023-04-15T09:37:09;13.60;99.90
13251;DHT22;6692;50.710;7.180;2023-04-15T09:39:10;13.70;99.90
13251;DHT22;6692;50.710;7.180;2023-04-15T09:41:16;13.80;99.90
13251;DHT22;6692;50.710;7.180;2023-04-15T09:43:16;13.80;99.90
13251;DHT22;6692;50.710;7.180;2023-04-15T09:45:17;13.70;99.90
13251;DHT22;6692;50.710;7.180;2023-04-15T09:47:25;13.70;99.90
13251;DHT22;6692;50.710;7.180;2023-04-15T09:49:26;13.70;99.90
13251;DHT22;6692;50.710;7.180;2023-04-15T09:51:33;13.80;99.90
13251;DHT22;6692;50.710;7.180;2023-04-15T09:53:34;13.80;99.90
13251;DHT22;6692;50.710;7.180;2023-04-15T09:55:35;13.90;99.90
13251;DHT22;6692;50.710;7.180;2023-04-15T09:57:35;13.90;99.90
13251;DHT22;6692;50.710;7.180;2023-04-15T09:59:36;13.90;99.90
13251;DHT22;6692;50.710;7.180;2023-04-15T10:01:37;13.90;99.90
13251;DHT22;6692;50.710;7.180;2023-04-15T10:03:37;13.80;99.90
13251;DHT22;6692;50.710;7.180;2023-04-15T10:05:38;13.70;99.90
13251;DHT22;6692;50.710;7.180;2023-04-15T10:07:39;13.70;99.90
13251;DHT22;6692;50.710;7.180;2023-04-15T10:09:41;13.70;99.90
13251;DHT22;6692;50.710;7.180;2023-04-15T10:11:41;13.70;99.90
13251;DHT22;6692;50.710;7.180;2023-04-15T10:13:43;13.70;99.90
13251;DHT22;6692;50.710;7.180;2023-04-15T10:15:44;13.80;99.90
13251;DHT22;6692;50.710;7.180;2023-04-15T10:17:44;13.90;99.90
13251;DHT22;6692;50.710;7.180;2023-04-15T10:19:45;13.90;99.90
13251;DHT22;6692;50.710;7.180;2023-04-15T10:21:45;14.00;99.90
13251;DHT22;6692;50.710;7.180;2023-04-15T10:23:46;14.00;99.90
13251;DHT22;6692;50.710;7.180;2023-04-15T10:25:48;14.10;99.90
13251;DHT22;6692;50.710;7.180;2023-04-15T10:27:48;14.10;99.90
13251;DHT22;6692;50.710;7.180;2023-04-15T10:29:49;14.20;99.90
13251;DHT22;6692;50.710;7.180;2023-04-15T10:31:51;14.20;99.90
13251;DHT22;6692;50.710;7.180;2023-04-15T10:33:52;14.30;99.90
13251;DHT22;6692;50.710;7.180;2023-04-15T10:35:54;14.30;99.90
13251;DHT22;6692;50.710;7.180;2023-04-15T10:37:54;14.30;99.90
13251;DHT22;6692;50.710;7.180;2023-04-15T10:39:55;14.40;99.90
13251;DHT22;6692;50.710;7.180;2023-04-15T10:42:05;14.40;99.90
13251;DHT22;6692;50.710;7.180;2023-04-15T10:44:05;14.50;99.90
13251;DHT22;6692;50.710;7.180;2023-04-15T10:46:05;14.60;99.90
13251;DHT22;6692;50.710;7.180;2023-04-15T10:48:06;14.60;99.90
13251;DHT22;6692;50.710;7.180;2023-04-15T10:50:07;14.70;99.90
13251;DHT22;6692;50.710;7.180;2023-04-15T10:52:08;14.80;99.90
13251;DHT22;6692;50.710;7.180;2023-04-15T10:54:16;14.90;99.90
13251;DHT22;6692;50.710;7.180;2023-04-15T10:56:16;15.00;99.90
13251;DHT22;6692;50.710;7.180;2023-04-15T10:58:17;15.00;99.90
13251;DHT22;6692;50.710;7.180;2023-04-15T11:00:18;15.00;99.90
13251;DHT22;6692;50.710;7.180;2023-04-15T11:02:19;15.00;99.90
13251;DHT22;6692;50.710;7.180;2023-04-15T11:04:57;15.00;99.90
13251;DHT22;6692;50.710;7.180;2023-04-15T11:06:42;15.00;99.90
13251;DHT22;6692;50.710;7.180;2023-04-15T11:08:56;15.10;99.90
13251;DHT22;6692;50.710;7.180;2023-04-15T11:10:56;15.20;99.90
13251;DHT22;6692;50.710;7.180;2023-04-15T11:12:58;15.10;99.90
13251;DHT22;6692;50.710;7.180;2023-04-15T11:14:58;15.10;99.90
13251;DHT22;6692;50.710;7.180;2023-04-15T11:17:00;15.10;99.90
13251;DHT22;6692;50.710;7.180;2023-04-15T11:19:01;15.10;99.90
13251;DHT22;6692;50.710;7.180;2023-04-15T11:21:03;15.10;99.90
13251;DHT22;6692;50.710;7.180;2023-04-15T11:23:03;15.20;99.90
13251;DHT22;6692;50.710;7.180;2023-04-15T11:25:05;15.30;99.90
13251;DHT22;6692;50.710;7.180;2023-04-15T11:27:06;15.30;99.90
13251;DHT22;6692;50.710;7.180;2023-04-15T11:29:08;15.30;99.90
13251;DHT22;6692;50.710;7.180;2023-04-15T11:31:10;15.20;99.90
13251;DHT22;6692;50.710;7.180;2023-04-15T11:33:10;15.20;99.90
13251;DHT22;6692;50.710;7.180;2023-04-15T11:35:11;15.30;99.90
13251;DHT22;6692;50.710;7.180;2023-04-15T11:37:12;15.30;99.90
13251;DHT22;6692;50.710;7.180;2023-04-15T11:39:13;15.10;99.90
13251;DHT22;6692;50.710;7.180;2023-04-15T11:41:13;15.00;99.90
13251;DHT22;6692;50.710;7.180;2023-04-15T11:43:17;14.90;99.90
13251;DHT22;6692;50.710;7.180;2023-04-15T11:45:16;14.80;99.90
13251;DHT22;6692;50.710;7.180;2023-04-15T11:47:22;14.70;99.90
13251;DHT22;6692;50.710;7.180;2023-04-15T11:49:25;14.50;99.90
13251;DHT22;6692;50.710;7.180;2023-04-15T11:51:25;14.50;99.90
13251;DHT22;6692;50.710;7.180;2023-04-15T11:53:35;14.40;99.90
13251;DHT22;6692;50.710;7.180;2023-04-15T11:55:40;14.40;99.90
13251;DHT22;6692;50.710;7.180;2023-04-15T11:57:40;14.50;99.90
13251;DHT22;6692;50.710;7.180;2023-04-15T11:59:41;14.40;99.90
13251;DHT22;6692;50.710;7.180;2023-04-15T12:01:41;14.50;99.90
13251;DHT22;6692;50.710;7.180;2023-04-15T12:03:43;14.40;99.90
13251;DHT22;6692;50.710;7.180;2023-04-15T12:07:58;14.20;99.90
13251;DHT22;6692;50.710;7.180;2023-04-15T12:09:59;14.30;99.90
13251;DHT22;6692;50.710;7.180;2023-04-15T12:11:59;14.20;99.90
13251;DHT22;6692;50.710;7.180;2023-04-15T12:16:19;14.20;99.90
13251;DHT22;6692;50.710;7.180;2023-04-15T12:18:20;14.30;99.90
13251;DHT22;6692;50.710;7.180;2023-04-15T12:20:24;14.20;99.90
13251;DHT22;6692;50.710;7.180;2023-04-15T12:22:25;14.20;99.90
13251;DHT22;6692;50.710;7.180;2023-04-15T12:24:26;14.10;99.90
13251;DHT22;6692;50.710;7.180;2023-04-15T12:26:28;14.00;99.90
13251;DHT22;6692;50.710;7.180;2023-04-15T12:28:29;13.90;99.90
13251;DHT22;6692;50.710;7.180;2023-04-15T12:30:29;13.80;99.90
13251;DHT22;6692;50.710;7.180;2023-04-15T12:32:33;13.70;99.90
13251;DHT22;6692;50.710;7.180;2023-04-15T12:34:32;13.70;99.90
13251;DHT22;6692;50.710;7.180;2023-04-15T12:36:32;13.60;99.90
13251;DHT22;6692;50.710;7.180;2023-04-15T12:38:33;13.50;99.90
13251;DHT22;6692;50.710;7.180;2023-04-15T12:40:34;13.50;99.90
13251;DHT22;6692;50.710;7.180;2023-04-15T12:42:35;13.40;99.90
13251;DHT22;6692;50.710;7.180;2023-04-15T12:44:37;13.40;99.90
13251;DHT22;6692;50.710;7.180;2023-04-15T12:46:38;13.40;99.90
13251;DHT22;6692;50.710;7.180;2023-04-15T12:48:39;13.30;99.90
13251;DHT22;6692;50.710;7.180;2023-04-15T12:50:39;13.40;99.90
13251;DHT22;6692;50.710;7.180;2023-04-15T12:52:41;13.40;99.90
13251;DHT22;6692;50.710;7.180;2023-04-15T12:54:42;13.30;99.90
13251;DHT22;6692;50.710;7.180;2023-04-15T12:56:44;13.30;99.90
13251;DHT22;6692;50.710;7.180;2023-04-15T12:58:44;13.30;99.90
13251;DHT22;6692;50.710;7.180;2023-04-15T13:00:45;13.30;99.90
13251;DHT22;6692;50.710;7.180;2023-04-15T13:02:45;13.30;99.90
13251;DHT22;6692;50.710;7.180;2023-04-15T13:04:46;13.30;99.90
13251;DHT22;6692;50.710;7.180;2023-04-15T13:06:47;13.40;99.90
13251;DHT22;6692;50.710;7.180;2023-04-15T13:08:47;13.40;99.90